sensor_id;sensor_type;location;lat;lon;timestamp;P1;durP1;ratioP1;P2;durP2;ratioP2
44572;SDS011;31762;45.420;10.072;2022-10-16T00:02:07;38.75;;;23.90;;
44572;SDS011;31762;45.420;10.072;2022-10-16T00:07:09;38.40;;;24.33;;
44572;SDS011;31762;45.420;10.072;2022-10-16T00:12:11;35.10;;;22.00;;
44572;SDS011;31762;45.420;10.072;2022-10-16T00:17:12;39.38;;;23.75;;
44572;SDS011;31762;45.420;10.072;2022-10-16T00:22:14;39.15;;;23.02;;
44572;SDS011;31762;45.420;10.072;2022-10-16T00:27:16;36.10;;;22.13;;
44572;SDS011;31762;45.420;10.072;2022-10-16T00:32:18;39.60;;;23.60;;
44572;SDS011;31762;45.420;10.072;2022-10-16T00:37:20;37.90;;;22.90;;
44572;SDS011;31762;45.420;10.072;2022-10-16T00:42:22;41.55;;;23.27;;
44572;SDS011;31762;45.420;10.072;2022-10-16T00:52:41;38.65;;;23.40;;
44572;SDS011;31762;45.420;10.072;2022-10-16T00:57:47;37.00;;;22.13;;
44572;SDS011;31762;45.420;10.072;2022-10-16T01:02:57;39.53;;;22.67;;
44572;SDS011;31762;45.420;10.072;2022-10-16T01:13:27;41.08;;;23.05;;
44572;SDS011;31762;45.420;10.072;2022-10-16T01:28:59;40.78;;;24.42;;
44572;SDS011;31762;45.420;10.072;2022-10-16T01:34:10;39.28;;;22.77;;
44572;SDS011;31762;45.420;10.072;2022-10-16T01:39:21;37.08;;;23.77;;
44572;SDS011;31762;45.420;10.072;2022-10-16T01:44:29;40.45;;;22.45;;
44572;SDS011;31762;45.420;10.072;2022-10-16T01:49:33;41.10;;;23.42;;
44572;SDS011;31762;45.420;10.072;2022-10-16T01:54:37;37.30;;;21.53;;
44572;SDS011;31762;45.420;10.072;2022-10-16T01:59:47;36.72;;;23.83;;
44572;SDS011;31762;45.420;10.072;2022-10-16T02:04:54;38.35;;;22.52;;
44572;SDS011;31762;45.420;10.072;2022-10-16T02:10:19;36.40;;;23.27;;
44572;SDS011;31762;45.420;10.072;2022-10-16T02:15:21;41.08;;;23.00;;
44572;SDS011;31762;45.420;10.072;2022-10-16T02:20:25;41.67;;;22.65;;
44572;SDS011;31762;45.420;10.072;2022-10-16T02:25:37;42.30;;;24.00;;
44572;SDS011;31762;45.420;10.072;2022-10-16T02:30:42;40.53;;;23.83;;
44572;SDS011;31762;45.420;10.072;2022-10-16T02:35:59;38.97;;;23.23;;
44572;SDS011;31762;45.420;10.072;2022-10-16T02:41:01;36.83;;;21.23;;
44572;SDS011;31762;45.420;10.072;2022-10-16T02:46:04;38.47;;;23.38;;
44572;SDS011;31762;45.420;10.072;2022-10-16T02:51:06;36.72;;;21.98;;
44572;SDS011;31762;45.420;10.072;2022-10-16T02:56:07;37.78;;;23.15;;
44572;SDS011;31762;45.420;10.072;2022-10-16T03:01:09;45.80;;;23.52;;
44572;SDS011;31762;45.420;10.072;2022-10-16T03:06:11;36.88;;;22.30;;
44572;SDS011;31762;45.420;10.072;2022-10-16T03:11:13;34.50;;;21.55;;
44572;SDS011;31762;45.420;10.072;2022-10-16T03:16:14;35.35;;;23.23;;
44572;SDS011;31762;45.420;10.072;2022-10-16T03:21:16;37.58;;;22.75;;
44572;SDS011;31762;45.420;10.072;2022-10-16T03:26:18;35.55;;;21.45;;
44572;SDS011;31762;45.420;10.072;2022-10-16T03:31:20;31.38;;;20.75;;
44572;SDS011;31762;45.420;10.072;2022-10-16T03:36:21;35.08;;;21.10;;
44572;SDS011;31762;45.420;10.072;2022-10-16T03:41:23;37.40;;;21.30;;
44572;SDS011;31762;45.420;10.072;2022-10-16T03:46:25;34.25;;;20.73;;
44572;SDS011;31762;45.420;10.072;2022-10-16T03:51:27;36.97;;;21.90;;
44572;SDS011;31762;45.420;10.072;2022-10-16T03:56:28;35.17;;;21.33;;
44572;SDS011;31762;45.420;10.072;2022-10-16T04:01:30;32.42;;;20.08;;
44572;SDS011;31762;45.420;10.072;2022-10-16T04:06:32;33.95;;;20.23;;
44572;SDS011;31762;45.420;10.072;2022-10-16T04:11:34;37.03;;;22.00;;
44572;SDS011;31762;45.420;10.072;2022-10-16T04:16:35;32.55;;;20.35;;
44572;SDS011;31762;45.420;10.072;2022-10-16T04:21:37;37.03;;;21.83;;
44572;SDS011;31762;45.420;10.072;2022-10-16T04:26:39;37.33;;;22.98;;
44572;SDS011;31762;45.420;10.072;2022-10-16T04:31:41;38.92;;;22.75;;
44572;SDS011;31762;45.420;10.072;2022-10-16T04:36:42;38.17;;;22.33;;
44572;SDS011;31762;45.420;10.072;2022-10-16T04:41:44;32.73;;;20.23;;
44572;SDS011;31762;45.420;10.072;2022-10-16T04:46:46;31.23;;;20.30;;
44572;SDS011;31762;45.420;10.072;2022-10-16T04:51:48;35.35;;;21.67;;
44572;SDS011;31762;45.420;10.072;2022-10-16T04:56:50;32.22;;;20.50;;
44572;SDS011;31762;45.420;10.072;2022-10-16T05:01:52;35.95;;;22.52;;
44572;SDS011;31762;45.420;10.072;2022-10-16T05:06:53;39.05;;;21.70;;
44572;SDS011;31762;45.420;10.072;2022-10-16T05:11:55;36.40;;;21.15;;
44572;SDS011;31762;45.420;10.072;2022-10-16T05:16:57;36.10;;;21.30;;
44572;SDS011;31762;45.420;10.072;2022-10-16T05:22:00;36.53;;;21.40;;
44572;SDS011;31762;45.420;10.072;2022-10-16T05:27:02;29.33;;;20.07;;
44572;SDS011;31762;45.420;10.072;2022-10-16T05:32:04;31.60;;;19.03;;
44572;SDS011;31762;45.420;10.072;2022-10-16T05:37:06;38.70;;;20.93;;
44572;SDS011;31762;45.420;10.072;2022-10-16T05:42:07;36.20;;;21.23;;
44572;SDS011;31762;45.420;10.072;2022-10-16T05:47:09;37.13;;;20.50;;
44572;SDS011;31762;45.420;10.072;2022-10-16T05:52:11;35.63;;;20.23;;
44572;SDS011;31762;45.420;10.072;2022-10-16T05:57:12;38.03;;;22.25;;
44572;SDS011;31762;45.420;10.072;2022-10-16T06:02:14;31.23;;;21.98;;
44572;SDS011;31762;45.420;10.072;2022-10-16T06:07:16;31.60;;;20.73;;
44572;SDS011;31762;45.420;10.072;2022-10-16T06:12:18;36.27;;;21.03;;
44572;SDS011;31762;45.420;10.072;2022-10-16T06:17:20;36.05;;;20.65;;
44572;SDS011;31762;45.420;10.072;2022-10-16T06:22:22;35.17;;;19.77;;
44572;SDS011;31762;45.420;10.072;2022-10-16T06:27:24;34.88;;;21.83;;
44572;SDS011;31762;45.420;10.072;2022-10-16T06:32:27;37.73;;;20.80;;
44572;SDS011;31762;45.420;10.072;2022-10-16T06:37:28;32.65;;;21.38;;
44572;SDS011;31762;45.420;10.072;2022-10-16T06:42:30;35.25;;;21.13;;
44572;SDS011;31762;45.420;10.072;2022-10-16T06:47:32;30.95;;;19.38;;
44572;SDS011;31762;45.420;10.072;2022-10-16T06:52:33;34.23;;;20.93;;
44572;SDS011;31762;45.420;10.072;2022-10-16T06:57:35;34.53;;;21.42;;
44572;SDS011;31762;45.420;10.072;2022-10-16T07:02:37;32.70;;;20.50;;
44572;SDS011;31762;45.420;10.072;2022-10-16T07:07:39;34.50;;;20.65;;
44572;SDS011;31762;45.420;10.072;2022-10-16T07:12:41;32.60;;;21.08;;
44572;SDS011;31762;45.420;10.072;2022-10-16T07:17:42;36.88;;;20.63;;
44572;SDS011;31762;45.420;10.072;2022-10-16T07:22:44;32.70;;;19.27;;
44572;SDS011;31762;45.420;10.072;2022-10-16T07:27:46;36.10;;;20.70;;
44572;SDS011;31762;45.420;10.072;2022-10-16T07:32:47;32.57;;;21.07;;
44572;SDS011;31762;45.420;10.072;2022-10-16T07:37:49;34.50;;;21.93;;
44572;SDS011;31762;45.420;10.072;2022-10-16T07:42:51;38.40;;;22.15;;
44572;SDS011;31762;45.420;10.072;2022-10-16T07:47:52;33.55;;;20.23;;
44572;SDS011;31762;45.420;10.072;2022-10-16T07:52:54;38.53;;;20.23;;
44572;SDS011;31762;45.420;10.072;2022-10-16T07:57:56;33.67;;;20.30;;
44572;SDS011;31762;45.420;10.072;2022-10-16T08:02:58;34.92;;;20.35;;
44572;SDS011;31762;45.420;10.072;2022-10-16T08:08:01;33.87;;;18.80;;
44572;SDS011;31762;45.420;10.072;2022-10-16T08:13:03;35.75;;;20.33;;
44572;SDS011;31762;45.420;10.072;2022-10-16T08:18:05;30.27;;;18.85;;
44572;SDS011;31762;45.420;10.072;2022-10-16T08:23:07;35.30;;;19.52;;
44572;SDS011;31762;45.420;10.072;2022-10-16T08:28:10;32.38;;;19.52;;
44572;SDS011;31762;45.420;10.072;2022-10-16T08:33:12;35.03;;;21.38;;
44572;SDS011;31762;45.420;10.072;2022-10-16T08:38:14;33.37;;;20.27;;
44572;SDS011;31762;45.420;10.072;2022-10-16T08:43:28;36.45;;;21.27;;
44572;SDS011;31762;45.420;10.072;2022-10-16T08:48:47;32.83;;;20.10;;
44572;SDS011;31762;45.420;10.072;2022-10-16T08:53:52;38.75;;;20.80;;
44572;SDS011;31762;45.420;10.072;2022-10-16T08:58:57;34.70;;;21.30;;
44572;SDS011;31762;45.420;10.072;2022-10-16T09:14:50;37.20;;;23.00;;
44572;SDS011;31762;45.420;10.072;2022-10-16T09:20:33;35.58;;;22.05;;
44572;SDS011;31762;45.420;10.072;2022-10-16T09:25:56;42.83;;;23.80;;
44572;SDS011;31762;45.420;10.072;2022-10-16T09:30:59;33.00;;;21.42;;
44572;SDS011;31762;45.420;10.072;2022-10-16T09:36:02;33.10;;;21.15;;
44572;SDS011;31762;45.420;10.072;2022-10-16T09:41:23;38.57;;;22.17;;
44572;SDS011;31762;45.420;10.072;2022-10-16T09:46:32;31.92;;;19.67;;
44572;SDS011;31762;45.420;10.072;2022-10-16T09:51:36;31.75;;;19.55;;
44572;SDS011;31762;45.420;10.072;2022-10-16T09:56:38;30.30;;;19.02;;
44572;SDS011;31762;45.420;10.072;2022-10-16T10:01:41;32.55;;;20.67;;
44572;SDS011;31762;45.420;10.072;2022-10-16T10:11:58;32.20;;;19.10;;
44572;SDS011;31762;45.420;10.072;2022-10-16T10:17:13;35.10;;;20.50;;
44572;SDS011;31762;45.420;10.072;2022-10-16T10:22:30;27.40;;;18.10;;
44572;SDS011;31762;45.420;10.072;2022-10-16T10:43:49;29.88;;;19.98;;
44572;SDS011;31762;45.420;10.072;2022-10-16T10:54:38;31.58;;;18.70;;
44572;SDS011;31762;45.420;10.072;2022-10-16T11:10:44;33.13;;;20.20;;
44572;SDS011;31762;45.420;10.072;2022-10-16T11:15:54;29.13;;;18.60;;
44572;SDS011;31762;45.420;10.072;2022-10-16T11:21:08;29.25;;;18.90;;
44572;SDS011;31762;45.420;10.072;2022-10-16T11:26:30;34.65;;;18.85;;
44572;SDS011;31762;45.420;10.072;2022-10-16T11:31:37;29.63;;;19.17;;
44572;SDS011;31762;45.420;10.072;2022-10-16T11:36:55;26.33;;;17.88;;
44572;SDS011;31762;45.420;10.072;2022-10-16T11:42:11;31.08;;;18.15;;
44572;SDS011;31762;45.420;10.072;2022-10-16T11:52:58;31.33;;;17.40;;
44572;SDS011;31762;45.420;10.072;2022-10-16T12:08:52;29.02;;;18.45;;
44572;SDS011;31762;45.420;10.072;2022-10-16T12:19:13;28.42;;;18.65;;
44572;SDS011;31762;45.420;10.072;2022-10-16T12:24:33;29.73;;;19.45;;
44572;SDS011;31762;45.420;10.072;2022-10-16T12:29:43;27.70;;;15.40;;
44572;SDS011;31762;45.420;10.072;2022-10-16T12:34:45;25.00;;;16.25;;
44572;SDS011;31762;45.420;10.072;2022-10-16T12:39:49;28.15;;;16.38;;
44572;SDS011;31762;45.420;10.072;2022-10-16T12:44:56;24.88;;;17.40;;
44572;SDS011;31762;45.420;10.072;2022-10-16T12:49:58;25.08;;;15.43;;
44572;SDS011;31762;45.420;10.072;2022-10-16T12:55:11;23.63;;;13.85;;
44572;SDS011;31762;45.420;10.072;2022-10-16T13:32:48;20.73;;;13.35;;
44572;SDS011;31762;45.420;10.072;2022-10-16T13:38:14;19.98;;;12.43;;
44572;SDS011;31762;45.420;10.072;2022-10-16T13:43:18;18.98;;;12.70;;
44572;SDS011;31762;45.420;10.072;2022-10-16T13:48:23;20.73;;;13.40;;
44572;SDS011;31762;45.420;10.072;2022-10-16T13:53:25;22.17;;;12.98;;
44572;SDS011;31762;45.420;10.072;2022-10-16T13:58:26;23.35;;;13.65;;
44572;SDS011;31762;45.420;10.072;2022-10-16T14:03:28;23.03;;;14.37;;
44572;SDS011;31762;45.420;10.072;2022-10-16T14:08:31;23.30;;;14.13;;
44572;SDS011;31762;45.420;10.072;2022-10-16T14:13:43;20.95;;;14.38;;
44572;SDS011;31762;45.420;10.072;2022-10-16T14:18:55;18.80;;;12.27;;
44572;SDS011;31762;45.420;10.072;2022-10-16T14:29:28;20.90;;;12.90;;
44572;SDS011;31762;45.420;10.072;2022-10-16T14:34:32;19.27;;;12.98;;
44572;SDS011;31762;45.420;10.072;2022-10-16T14:39:38;21.13;;;14.17;;
44572;SDS011;31762;45.420;10.072;2022-10-16T14:44:40;24.05;;;14.32;;
44572;SDS011;31762;45.420;10.072;2022-10-16T14:49:42;23.23;;;12.80;;
44572;SDS011;31762;45.420;10.072;2022-10-16T14:54:47;18.38;;;11.93;;
44572;SDS011;31762;45.420;10.072;2022-10-16T14:59:49;20.13;;;12.90;;
44572;SDS011;31762;45.420;10.072;2022-10-16T15:04:51;21.00;;;12.27;;
44572;SDS011;31762;45.420;10.072;2022-10-16T15:09:53;21.77;;;12.47;;
44572;SDS011;31762;45.420;10.072;2022-10-16T15:14:55;24.23;;;12.32;;
44572;SDS011;31762;45.420;10.072;2022-10-16T15:19:57;19.17;;;12.52;;
44572;SDS011;31762;45.420;10.072;2022-10-16T15:24:59;20.92;;;11.63;;
44572;SDS011;31762;45.420;10.072;2022-10-16T15:30:00;15.57;;;10.55;;
44572;SDS011;31762;45.420;10.072;2022-10-16T15:35:02;19.90;;;11.53;;
44572;SDS011;31762;45.420;10.072;2022-10-16T15:40:04;17.90;;;11.03;;
44572;SDS011;31762;45.420;10.072;2022-10-16T15:45:06;17.50;;;10.27;;
44572;SDS011;31762;45.420;10.072;2022-10-16T15:50:10;14.52;;;10.10;;
44572;SDS011;31762;45.420;10.072;2022-10-16T15:55:14;15.95;;;9.95;;
44572;SDS011;31762;45.420;10.072;2022-10-16T16:00:17;13.77;;;9.00;;
44572;SDS011;31762;45.420;10.072;2022-10-16T16:05:20;14.88;;;9.68;;
44572;SDS011;31762;45.420;10.072;2022-10-16T16:10:23;16.27;;;9.23;;
44572;SDS011;31762;45.420;10.072;2022-10-16T16:15:24;16.40;;;9.80;;
44572;SDS011;31762;45.420;10.072;2022-10-16T16:20:26;16.52;;;9.60;;
44572;SDS011;31762;45.420;10.072;2022-10-16T16:25:28;18.02;;;12.48;;
44572;SDS011;31762;45.420;10.072;2022-10-16T16:30:30;19.38;;;12.57;;
44572;SDS011;31762;45.420;10.072;2022-10-16T16:35:32;17.27;;;14.27;;
44572;SDS011;31762;45.420;10.072;2022-10-16T16:40:33;14.17;;;12.13;;
44572;SDS011;31762;45.420;10.072;2022-10-16T16:45:35;19.30;;;14.57;;
44572;SDS011;31762;45.420;10.072;2022-10-16T16:50:37;21.35;;;15.15;;
44572;SDS011;31762;45.420;10.072;2022-10-16T16:55:39;19.80;;;13.75;;
44572;SDS011;31762;45.420;10.072;2022-10-16T17:00:47;16.75;;;12.15;;
44572;SDS011;31762;45.420;10.072;2022-10-16T17:06:05;18.73;;;12.05;;
44572;SDS011;31762;45.420;10.072;2022-10-16T17:11:26;16.55;;;11.68;;
44572;SDS011;31762;45.420;10.072;2022-10-16T17:16:32;16.35;;;11.73;;
44572;SDS011;31762;45.420;10.072;2022-10-16T17:21:36;18.20;;;13.17;;
44572;SDS011;31762;45.420;10.072;2022-10-16T17:26:37;19.30;;;15.27;;
44572;SDS011;31762;45.420;10.072;2022-10-16T17:31:39;19.10;;;13.33;;
44572;SDS011;31762;45.420;10.072;2022-10-16T17:36:41;16.73;;;11.60;;
44572;SDS011;31762;45.420;10.072;2022-10-16T17:41:43;19.47;;;13.80;;
44572;SDS011;31762;45.420;10.072;2022-10-16T17:46:47;20.97;;;15.10;;
44572;SDS011;31762;45.420;10.072;2022-10-16T17:51:51;20.63;;;17.30;;
44572;SDS011;31762;45.420;10.072;2022-10-16T17:56:53;23.33;;;14.05;;
44572;SDS011;31762;45.420;10.072;2022-10-16T18:01:55;22.70;;;20.08;;
44572;SDS011;31762;45.420;10.072;2022-10-16T18:06:57;21.60;;;15.38;;
44572;SDS011;31762;45.420;10.072;2022-10-16T18:11:58;19.63;;;14.02;;
44572;SDS011;31762;45.420;10.072;2022-10-16T18:17:00;20.25;;;17.55;;
44572;SDS011;31762;45.420;10.072;2022-10-16T18:22:02;18.43;;;13.37;;
44572;SDS011;31762;45.420;10.072;2022-10-16T18:27:04;17.50;;;11.67;;
44572;SDS011;31762;45.420;10.072;2022-10-16T18:32:05;16.97;;;11.37;;
44572;SDS011;31762;45.420;10.072;2022-10-16T18:37:07;17.02;;;11.25;;
44572;SDS011;31762;45.420;10.072;2022-10-16T18:42:09;19.58;;;13.63;;
44572;SDS011;31762;45.420;10.072;2022-10-16T18:47:10;18.08;;;11.75;;
44572;SDS011;31762;45.420;10.072;2022-10-16T18:52:12;17.42;;;11.73;;
44572;SDS011;31762;45.420;10.072;2022-10-16T18:57:14;18.00;;;11.80;;
44572;SDS011;31762;45.420;10.072;2022-10-16T19:02:16;19.40;;;12.55;;
44572;SDS011;31762;45.420;10.072;2022-10-16T19:07:17;20.90;;;12.95;;
44572;SDS011;31762;45.420;10.072;2022-10-16T19:12:19;18.37;;;11.93;;
44572;SDS011;31762;45.420;10.072;2022-10-16T19:17:21;20.70;;;13.43;;
44572;SDS011;31762;45.420;10.072;2022-10-16T19:22:23;18.67;;;13.23;;
44572;SDS011;31762;45.420;10.072;2022-10-16T19:27:25;23.98;;;14.27;;
44572;SDS011;31762;45.420;10.072;2022-10-16T19:32:26;22.27;;;14.00;;
44572;SDS011;31762;45.420;10.072;2022-10-16T19:37:29;20.27;;;13.57;;
44572;SDS011;31762;45.420;10.072;2022-10-16T19:42:30;22.38;;;14.43;;
44572;SDS011;31762;45.420;10.072;2022-10-16T19:47:32;24.42;;;14.80;;
44572;SDS011;31762;45.420;10.072;2022-10-16T19:52:34;21.45;;;13.90;;
44572;SDS011;31762;45.420;10.072;2022-10-16T19:57:37;23.63;;;14.05;;
44572;SDS011;31762;45.420;10.072;2022-10-16T20:02:38;22.27;;;14.93;;
44572;SDS011;31762;45.420;10.072;2022-10-16T20:07:41;24.52;;;15.30;;
44572;SDS011;31762;45.420;10.072;2022-10-16T20:12:42;25.48;;;15.48;;
44572;SDS011;31762;45.420;10.072;2022-10-16T20:17:44;26.02;;;16.23;;
44572;SDS011;31762;45.420;10.072;2022-10-16T20:22:46;25.83;;;15.93;;
44572;SDS011;31762;45.420;10.072;2022-10-16T20:27:48;24.58;;;15.27;;
44572;SDS011;31762;45.420;10.072;2022-10-16T20:32:49;25.58;;;16.42;;
44572;SDS011;31762;45.420;10.072;2022-10-16T20:37:51;31.87;;;19.27;;
44572;SDS011;31762;45.420;10.072;2022-10-16T20:42:53;27.00;;;16.93;;
44572;SDS011;31762;45.420;10.072;2022-10-16T20:47:54;27.38;;;16.40;;
44572;SDS011;31762;45.420;10.072;2022-10-16T20:52:57;27.48;;;16.92;;
44572;SDS011;31762;45.420;10.072;2022-10-16T20:57:59;25.20;;;14.93;;
44572;SDS011;31762;45.420;10.072;2022-10-16T21:03:01;27.63;;;17.40;;
44572;SDS011;31762;45.420;10.072;2022-10-16T21:08:03;29.83;;;18.17;;
44572;SDS011;31762;45.420;10.072;2022-10-16T21:13:05;24.87;;;16.03;;
44572;SDS011;31762;45.420;10.072;2022-10-16T21:18:06;29.42;;;19.10;;
44572;SDS011;31762;45.420;10.072;2022-10-16T21:23:08;28.35;;;16.88;;
44572;SDS011;31762;45.420;10.072;2022-10-16T21:28:11;30.88;;;18.90;;
44572;SDS011;31762;45.420;10.072;2022-10-16T21:33:13;31.13;;;18.42;;
44572;SDS011;31762;45.420;10.072;2022-10-16T21:38:15;34.23;;;21.73;;
44572;SDS011;31762;45.420;10.072;2022-10-16T21:43:17;32.30;;;21.10;;
44572;SDS011;31762;45.420;10.072;2022-10-16T21:48:19;31.75;;;18.80;;
44572;SDS011;31762;45.420;10.072;2022-10-16T21:53:20;31.77;;;20.17;;
44572;SDS011;31762;45.420;10.072;2022-10-16T21:58:22;31.23;;;19.50;;
44572;SDS011;31762;45.420;10.072;2022-10-16T22:03:24;31.20;;;18.30;;
44572;SDS011;31762;45.420;10.072;2022-10-16T22:08:26;35.23;;;20.70;;
44572;SDS011;31762;45.420;10.072;2022-10-16T22:13:27;30.87;;;18.93;;
44572;SDS011;31762;45.420;10.072;2022-10-16T22:18:29;35.30;;;20.23;;
44572;SDS011;31762;45.420;10.072;2022-10-16T22:23:32;32.92;;;22.00;;
44572;SDS011;31762;45.420;10.072;2022-10-16T22:28:34;33.08;;;20.90;;
44572;SDS011;31762;45.420;10.072;2022-10-16T22:33:37;32.17;;;19.95;;
44572;SDS011;31762;45.420;10.072;2022-10-16T22:38:39;33.77;;;20.77;;
44572;SDS011;31762;45.420;10.072;2022-10-16T22:43:42;33.28;;;20.25;;
44572;SDS011;31762;45.420;10.072;2022-10-16T22:48:45;33.63;;;19.93;;
44572;SDS011;31762;45.420;10.072;2022-10-16T22:53:48;33.33;;;20.40;;
44572;SDS011;31762;45.420;10.072;2022-10-16T22:58:49;31.88;;;20.42;;
44572;SDS011;31762;45.420;10.072;2022-10-16T23:03:51;31.48;;;19.60;;
44572;SDS011;31762;45.420;10.072;2022-10-16T23:08:54;30.08;;;20.17;;
44572;SDS011;31762;45.420;10.072;2022-10-16T23:13:57;35.15;;;22.45;;
44572;SDS011;31762;45.420;10.072;2022-10-16T23:18:58;32.33;;;20.85;;
44572;SDS011;31762;45.420;10.072;2022-10-16T23:24:00;32.50;;;21.70;;
44572;SDS011;31762;45.420;10.072;2022-10-16T23:29:02;35.03;;;20.60;;
44572;SDS011;31762;45.420;10.072;2022-10-16T23:34:04;30.30;;;19.00;;
44572;SDS011;31762;45.420;10.072;2022-10-16T23:39:06;37.77;;;20.87;;
44572;SDS011;31762;45.420;10.072;2022-10-16T23:44:08;34.77;;;19.70;;
44572;SDS011;31762;45.420;10.072;2022-10-16T23:49:10;31.27;;;19.50;;
44572;SDS011;31762;45.420;10.072;2022-10-16T23:54:12;30.50;;;19.38;;
44572;SDS011;31762;45.420;10.072;2022-10-16T23:59:13;30.00;;;18.73;;
